createdAt,value
2022-10-28T00:00:05.689Z,18.30
2022-10-28T00:05:34.100Z,16.08
2022-10-28T00:10:37.458Z,14.77
2022-10-28T00:15:40.470Z,15.14
2022-10-28T00:20:43.515Z,17.49
2022-10-28T00:25:46.471Z,18.77
2022-10-28T00:30:49.408Z,19.60
2022-10-28T00:35:52.375Z,19.11
2022-10-28T00:40:55.405Z,16.88
2022-10-28T00:45:58.694Z,15.45
2022-10-28T00:51:03.467Z,15.72
2022-10-28T00:56:08.868Z,18.02
2022-10-28T01:01:11.875Z,19.15
2022-10-28T01:06:15.579Z,19.83
2022-10-28T01:11:45.452Z,19.33
2022-10-28T01:17:24.911Z,16.88
2022-10-28T01:22:27.879Z,15.18
2022-10-28T01:28:11.370Z,15.47
2022-10-28T01:34:13.171Z,18.09
2022-10-28T01:39:47.490Z,19.31
2022-10-28T01:45:08.922Z,20.07
2022-10-28T01:50:44.403Z,19.44
2022-10-28T01:55:54.149Z,17.12
2022-10-28T02:01:01.012Z,15.79
2022-10-28T02:06:11.375Z,16.18
2022-10-28T02:11:55.487Z,18.36
2022-10-28T02:17:10.782Z,19.50
2022-10-28T02:22:41.024Z,19.00
2022-10-28T02:28:00.642Z,16.52
2022-10-28T02:33:10.799Z,14.89
2022-10-28T02:38:39.903Z,15.26
2022-10-28T02:43:46.026Z,17.70
2022-10-28T02:48:55.287Z,18.74
2022-10-28T02:54:09.749Z,19.49
2022-10-28T02:59:13.798Z,18.89
2022-10-28T03:04:16.832Z,16.65
2022-10-28T03:09:19.869Z,15.16
2022-10-28T03:14:22.947Z,15.39
2022-10-28T03:19:25.958Z,17.71
2022-10-28T03:24:28.953Z,18.79
2022-10-28T03:29:32.265Z,18.48
2022-10-28T03:34:35.268Z,16.23
2022-10-28T03:39:38.270Z,14.71
2022-10-28T03:44:41.296Z,14.88
2022-10-28T03:49:44.279Z,17.18
2022-10-28T03:54:47.285Z,18.33
2022-10-28T03:59:50.288Z,19.14
2022-10-28T04:04:53.606Z,18.67
2022-10-28T04:09:56.601Z,16.50
2022-10-28T04:14:59.647Z,15.07
2022-10-28T04:20:02.734Z,15.15
2022-10-28T04:25:06.556Z,17.44
2022-10-28T04:30:13.073Z,18.47
2022-10-28T04:35:16.333Z,19.04
2022-10-28T04:40:19.351Z,18.41
2022-10-28T04:45:22.439Z,16.16
2022-10-28T04:50:26.074Z,14.72
2022-10-28T04:55:29.265Z,14.98
2022-10-28T05:00:32.488Z,17.33
2022-10-28T05:05:37.630Z,18.47
2022-10-28T05:10:40.666Z,19.19
2022-10-28T05:15:44.149Z,18.32
2022-10-28T05:20:47.257Z,16.08
2022-10-28T05:25:52.004Z,14.70
2022-10-28T05:30:55.043Z,15.08
2022-10-28T05:36:00.111Z,17.57
2022-10-28T05:41:03.814Z,18.68
2022-10-28T05:46:06.780Z,18.35
2022-10-28T05:51:09.802Z,16.10
2022-10-28T05:56:12.793Z,14.60
2022-10-28T06:01:15.856Z,14.87
2022-10-28T06:06:18.897Z,17.22
2022-10-28T06:11:20.323Z,18.20
2022-10-28T06:16:23.311Z,18.97
2022-10-28T06:21:26.380Z,19.40
2022-10-28T06:26:29.390Z,18.72
2022-10-28T06:31:32.431Z,16.33
2022-10-28T06:36:35.714Z,16.07
2022-10-28T06:41:38.972Z,18.30
2022-10-28T06:46:43.562Z,19.41
2022-10-28T06:51:46.659Z,19.13
2022-10-28T06:56:49.679Z,16.98
2022-10-28T07:01:52.903Z,15.59
2022-10-28T07:06:59.371Z,15.88
2022-10-28T07:12:05.049Z,18.19
2022-10-28T07:17:08.869Z,19.34
2022-10-28T07:22:12.378Z,20.02
2022-10-28T07:27:15.602Z,19.50
2022-10-28T07:32:18.726Z,17.15
2022-10-28T07:37:22.030Z,16.90
2022-10-28T07:42:25.139Z,19.40
2022-10-28T07:47:28.481Z,20.49
2022-10-28T07:52:31.951Z,20.04
2022-10-28T07:57:36.003Z,17.58
2022-10-28T08:02:39.861Z,15.96
2022-10-28T08:07:42.943Z,16.31
2022-10-28T08:12:46.758Z,18.72
2022-10-28T08:17:54.217Z,19.79
2022-10-28T08:23:01.771Z,20.41
2022-10-28T08:28:07.188Z,20.96
2022-10-28T08:33:10.477Z,20.42
2022-10-28T08:38:13.484Z,18.17
2022-10-28T08:43:57.115Z,16.83
2022-10-28T08:49:14.458Z,17.66
2022-10-28T08:54:50.676Z,20.04
2022-10-28T08:59:55.249Z,21.15
2022-10-28T09:05:23.056Z,21.79
2022-10-28T09:10:43.096Z,20.76
2022-10-28T09:16:24.702Z,18.67
2022-10-28T09:21:45.644Z,18.96
2022-10-28T09:27:17.307Z,21.03
2022-10-28T09:32:30.010Z,21.02
2022-10-28T09:37:41.540Z,18.96
2022-10-28T09:43:28.065Z,17.69
2022-10-28T09:48:55.967Z,18.71
2022-10-28T09:54:01.440Z,21.06
2022-10-28T09:59:05.540Z,21.27
2022-10-28T10:04:31.309Z,19.30
2022-10-28T10:09:37.405Z,18.12
2022-10-28T10:14:49.190Z,19.76
2022-10-28T10:20:15.206Z,21.78
2022-10-28T10:25:18.118Z,21.86
2022-10-28T10:30:56.810Z,19.93
2022-10-28T10:36:10.744Z,18.91
2022-10-28T10:41:36.939Z,21.14
2022-10-28T10:46:39.877Z,21.74
2022-10-28T10:51:59.835Z,20.10
2022-10-28T10:57:20.788Z,19.03
2022-10-28T11:02:31.685Z,18.82
2022-10-28T11:07:37.515Z,21.42
2022-10-28T11:12:54.417Z,22.01
2022-10-28T11:18:21.664Z,20.29
2022-10-28T11:23:33.946Z,19.35
2022-10-28T11:28:59.705Z,19.61
2022-10-28T11:35:01.076Z,22.40
2022-10-28T11:40:32.549Z,22.19
2022-10-28T11:45:51.315Z,20.63
2022-10-28T11:51:28.528Z,19.83
2022-10-28T11:56:43.358Z,19.28
2022-10-28T12:02:20.381Z,20.48
2022-10-28T12:07:29.368Z,22.96
2022-10-28T12:12:47.197Z,22.56
2022-10-28T12:17:58.402Z,20.72
2022-10-28T12:23:23.762Z,20.95
2022-10-28T12:28:58.999Z,22.94
2022-10-28T12:34:10.466Z,21.97
2022-10-28T12:39:44.339Z,19.96
2022-10-28T12:44:52.957Z,20.15
2022-10-28T12:50:28.218Z,22.20
2022-10-28T12:56:00.964Z,22.16
2022-10-28T13:01:21.345Z,20.29
2022-10-28T13:07:06.010Z,19.16
2022-10-28T13:12:26.962Z,20.52
2022-10-28T13:18:28.098Z,22.51
2022-10-28T13:23:58.240Z,22.01
2022-10-28T13:29:07.360Z,20.15
2022-10-28T13:34:15.113Z,19.03
2022-10-28T13:39:31.828Z,19.71
2022-10-28T13:44:58.875Z,22.15
2022-10-28T13:50:34.424Z,21.98
2022-10-28T13:55:40.943Z,20.20
2022-10-28T14:00:46.746Z,19.20
2022-10-28T14:06:02.646Z,19.76
2022-10-28T14:11:22.416Z,22.11
2022-10-28T14:16:34.343Z,22.26
2022-10-28T14:22:07.179Z,20.40
2022-10-28T14:27:43.922Z,19.08
2022-10-28T14:32:50.001Z,19.77
2022-10-28T14:38:10.118Z,22.07
2022-10-28T14:43:46.413Z,21.99
2022-10-28T14:49:24.315Z,19.91
2022-10-28T14:54:39.813Z,19.98
2022-10-28T14:59:45.706Z,22.00
2022-10-28T15:05:00.773Z,22.01
2022-10-28T15:10:38.276Z,19.89
2022-10-28T15:16:03.804Z,18.46
2022-10-28T15:21:16.785Z,18.88
2022-10-28T15:26:19.852Z,21.07
2022-10-28T15:31:23.012Z,22.06
2022-10-28T15:36:49.474Z,21.69
2022-10-28T15:41:54.547Z,19.66
2022-10-28T15:47:00.321Z,18.83
2022-10-28T15:52:19.059Z,20.74
2022-10-28T15:57:30.164Z,21.95
2022-10-28T16:02:41.366Z,21.49
2022-10-28T16:07:45.935Z,19.38
2022-10-28T16:13:10.603Z,19.30
2022-10-28T16:18:42.332Z,21.22
2022-10-28T16:23:49.585Z,21.92
2022-10-28T16:28:53.615Z,21.45
2022-10-28T16:33:59.938Z,19.46
2022-10-28T16:39:03.070Z,19.23
2022-10-28T16:44:10.156Z,20.99
2022-10-28T16:49:13.378Z,21.88
2022-10-28T16:54:16.353Z,21.81
2022-10-28T16:59:19.370Z,19.93
2022-10-28T17:04:22.571Z,18.39
2022-10-28T17:09:25.571Z,18.62
2022-10-28T17:14:28.579Z,20.69
2022-10-28T17:19:31.685Z,21.69
2022-10-28T17:24:35.202Z,22.28
2022-10-28T17:29:39.031Z,21.78
2022-10-28T17:34:42.642Z,19.67
2022-10-28T17:39:45.805Z,18.28
2022-10-28T17:45:07.794Z,19.05
2022-10-28T17:50:10.905Z,20.92
2022-10-28T17:55:13.910Z,21.70
2022-10-28T18:00:34.421Z,22.29
2022-10-28T18:05:56.674Z,21.73
2022-10-28T18:11:00.399Z,19.71
2022-10-28T18:16:05.762Z,18.33
2022-10-28T18:21:11.725Z,18.67
2022-10-28T18:26:35.946Z,20.96
2022-10-28T18:31:42.297Z,21.89
2022-10-28T18:36:45.942Z,21.56
2022-10-28T18:41:51.575Z,19.38
2022-10-28T18:46:54.908Z,19.29
2022-10-28T18:51:59.762Z,21.31
2022-10-28T18:57:20.272Z,22.14
2022-10-28T19:02:23.770Z,21.66
2022-10-28T19:07:45.219Z,19.48
2022-10-28T19:12:52.778Z,19.35
2022-10-28T19:17:56.415Z,21.42
2022-10-28T19:23:18.807Z,22.22
2022-10-28T19:28:23.053Z,21.60
2022-10-28T19:33:28.232Z,19.38
2022-10-28T19:38:34.223Z,17.90
2022-10-28T19:43:38.093Z,18.22
2022-10-28T19:48:45.518Z,20.53
2022-10-28T19:53:57.946Z,21.64
2022-10-28T19:59:04.781Z,22.24
2022-10-28T20:04:10.257Z,21.66
2022-10-28T20:09:14.511Z,19.49
2022-10-28T20:14:17.828Z,18.05
2022-10-28T20:19:38.749Z,18.59
2022-10-28T20:24:41.883Z,20.77
2022-10-28T20:29:44.859Z,21.61
2022-10-28T20:34:47.996Z,22.19
2022-10-28T20:40:10.322Z,21.47
2022-10-28T20:45:14.147Z,19.23
2022-10-28T20:50:17.658Z,19.04
2022-10-28T20:55:20.762Z,20.98
2022-10-28T21:00:24.111Z,21.80
2022-10-28T21:05:27.190Z,21.46
2022-10-28T21:10:30.289Z,19.36
2022-10-28T21:15:56.389Z,19.15
2022-10-28T21:21:21.224Z,21.01
2022-10-28T21:26:41.578Z,21.61
2022-10-28T21:31:44.673Z,21.11
2022-10-28T21:37:05.178Z,18.92
2022-10-28T21:42:25.847Z,18.92
2022-10-28T21:47:29.116Z,20.91
2022-10-28T21:52:32.221Z,21.57
2022-10-28T21:57:35.320Z,21.83
2022-10-28T22:02:38.530Z,20.00
2022-10-28T22:07:41.637Z,18.14
2022-10-28T22:12:44.757Z,18.29
2022-10-28T22:17:48.358Z,20.37
2022-10-28T22:22:51.465Z,21.23
2022-10-28T22:27:54.571Z,21.69
2022-10-28T22:32:59.952Z,20.78
2022-10-28T22:38:03.035Z,18.55
2022-10-28T22:43:06.278Z,18.31
2022-10-28T22:48:28.316Z,19.90
2022-10-28T22:53:31.400Z,20.56
2022-10-28T22:58:35.029Z,20.82
2022-10-28T23:03:44.513Z,21.04
2022-10-28T23:09:05.098Z,20.71
2022-10-28T23:14:08.414Z,18.63
2022-10-28T23:19:29.231Z,18.35
2022-10-28T23:24:32.329Z,20.05
2022-10-28T23:29:53.661Z,20.73
2022-10-28T23:34:56.769Z,20.88
2022-10-28T23:39:59.917Z,21.03
2022-10-28T23:45:03.287Z,21.19
2022-10-28T23:50:06.633Z,20.04
2022-10-28T23:55:10.420Z,18.84
